Portada
METAR-TAF:

METAR-TAF

Aeropuertos :

Kish, Irán

latitud: 26-31-36N, longitud: 053-58-54E, altitud: 30 m

Observación

El informe se hizo hace 1 hora y 3 minutos, a las 10:00 UTC
Viento 6 kt del sur
Temperatura 31°C
Humedad 40%
Presión 1013 hPa
Visibilidad: 7000 m

METAR: OIBK 041000Z 19006KT 7000 NSC 31/16 Q1013 NOSIG

Hora: 15:33 (11:03 UTC)

Pronóstico

El informe se hizo hace 5 horas y 33 minutos, a las 05:30 UTC
Pronóstico válido del 04 a las 06 UTC al 05 a las 12 UTC
Viento 6 kt del norte-noreste
Visibilidad: 7000 m
Temporalmente
del 05 a las 00 UTC al 05 a las 04 UTC
Visibilidad: 3000 m
Temporalmente
del 05 a las 09 UTC al 05 a las 12 UTC
Viento 20 kt del oeste con ráfagas de 24 kt
Visibilidad: 3000 m
arena

TAF: OIBK 040530Z 0406/0512 03006KT 7000 NSC TEMPO 0500/0504 3000 HZ/BR TEMPO 0509/0512 27020G24KT 3000 SA NSC

Observaciones y pronósticos meteorológicos de más de 4000 aeropuertos (mensajes METAR y TAF).

Los puntos amarillos y rojos representan las estaciones disponibles.

Ponga el ratón en el punto deseado para ver el nombre de la estación.

Haga clic para ver las observaciones y los pronósticos meteorológicos.

Para cambiar el mapa : haga clic en los botones verdes con una cruz de color negro para hacer un zoom, en el botón verde con un guión para alejar o en las flechas verdes para mapas adyacentes.


METAR-TAF: